Time,TemperatureF,DewpointF,PressureIn,WindDirection,WindDirectionDegrees,WindSpeedMPH,WindSpeedGustMPH,Humidity,HourlyPrecipIn,Conditions,Clouds,dailyrainin,SoftwareType,DateUTC
2013-04-27 00:00:00,54.6,54.6,29.88,NNW,338,0.0,0.0,100,0.00,,,0.00,VWS V14.01,2013-04-27 04:00:00,
2013-04-27 00:04:00,54.6,54.6,29.88,WNW,300,0.0,0.0,100,0.00,,,0.00,VWS V14.01,2013-04-27 04:04:00,
2013-04-27 00:09:00,55.1,55.1,29.88,WNW,300,0.0,0.0,100,0.00,,,0.00,VWS V14.01,2013-04-27 04:09:00,
2013-04-27 00:10:00,55.3,55.3,29.88,WNW,300,0.0,0.0,100,0.00,,,0.00,VWS V14.01,2013-04-27 04:10:00,
2013-04-27 00:14:00,55.5,55.5,29.88,WNW,300,0.0,0.0,100,0.00,,,0.00,VWS V14.01,2013-04-27 04:14:00,
2013-04-27 00:19:00,55.5,55.5,29.88,WNW,300,0.0,0.0,100,0.00,,,0.00,VWS V14.01,2013-04-27 04:19:00,
2013-04-27 00:20:00,55.5,55.5,29.88,WNW,300,0.0,0.0,100,0.00,,,0.00,VWS V14.01,2013-04-27 04:20:00,
2013-04-27 00:24:00,55.7,55.7,29.88,WNW,300,0.0,0.0,100,0.00,,,0.00,VWS V14.01,2013-04-27 04:24:00,
2013-04-27 00:29:00,55.7,55.7,29.88,WNW,300,0.0,0.0,100,0.00,,,0.00,VWS V14.01,2013-04-27 04:29:00,
2013-04-27 00:34:00,55.5,55.5,29.88,WNW,300,0.0,0.0,100,0.00,,,0.00,VWS V14.01,2013-04-27 04:34:00,
2013-04-27 00:39:00,55.5,55.5,29.88,WNW,300,0.0,0.0,100,0.00,,,0.00,VWS V14.01,2013-04-27 04:39:00,
2013-04-27 00:44:00,55.1,55.1,29.88,WNW,300,0.0,0.0,100,0.00,,,0.00,VWS V14.01,2013-04-27 04:44:00,
2013-04-27 00:49:00,54.9,54.9,29.88,WNW,300,0.0,0.0,100,0.00,,,0.00,VWS V14.01,2013-04-27 04:49:00,
2013-04-27 00:50:00,54.9,54.9,29.88,WNW,300,0.0,0.0,100,0.00,,,0.00,VWS V14.01,2013-04-27 04:50:00,
2013-04-27 00:59:00,54.6,54.6,29.88,WNW,300,0.0,0.0,100,0.00,,,0.00,VWS V14.01,2013-04-27 04:59:00,
2013-04-27 01:00:00,54.6,54.6,29.88,WNW,300,0.0,0.0,100,0.00,,,0.00,VWS V14.01,2013-04-27 05:00:00,
2013-04-27 01:04:00,54.6,54.6,29.88,WNW,300,0.0,0.0,100,0.00,,,0.00,VWS V14.01,2013-04-27 05:04:00,
2013-04-27 01:09:00,54.0,54.0,29.88,WNW,300,0.0,0.0,100,0.00,,,0.00,VWS V14.01,2013-04-27 05:09:00,
2013-04-27 01:10:00,54.0,54.0,29.88,WNW,300,0.0,0.0,100,0.00,,,0.00,VWS V14.01,2013-04-27 05:10:00,
2013-04-27 01:14:00,53.9,53.9,29.88,WNW,300,0.0,0.0,100,0.00,,,0.00,VWS V14.01,2013-04-27 05:14:00,
2013-04-27 01:19:00,53.9,53.9,29.88,WNW,300,0.0,0.0,100,0.00,,,0.00,VWS V14.01,2013-04-27 05:19:00,
2013-04-27 01:24:00,53.7,53.7,29.88,WNW,300,0.0,0.0,100,0.00,,,0.00,VWS V14.01,2013-04-27 05:24:00,
2013-04-27 01:29:00,53.5,53.5,29.88,WNW,300,0.0,0.0,100,0.00,,,0.00,VWS V14.01,2013-04-27 05:29:00,
2013-04-27 01:30:00,53.5,53.5,29.88,WNW,300,0.0,0.0,100,0.00,,,0.00,VWS V14.01,2013-04-27 05:30:00,
2013-04-27 01:34:00,53.5,53.5,29.88,WNW,300,0.0,0.0,100,0.00,,,0.00,VWS V14.01,2013-04-27 05:34:00,
2013-04-27 01:39:00,53.5,53.5,29.88,WNW,300,0.0,0.0,100,0.00,,,0.00,VWS V14.01,2013-04-27 05:39:00,
2013-04-27 01:40:00,53.7,53.7,29.88,WNW,300,0.0,0.0,100,0.00,,,0.00,VWS V14.01,2013-04-27 05:40:00,
2013-04-27 01:44:00,53.7,53.7,29.88,WNW,300,0.0,0.0,100,0.00,,,0.00,VWS V14.01,2013-04-27 05:44:00,
2013-04-27 01:49:00,53.9,53.9,29.88,WNW,300,0.0,0.0,100,0.00,,,0.00,VWS V14.01,2013-04-27 05:49:00,
2013-04-27 01:50:00,53.9,53.9,29.88,WNW,300,0.0,0.0,100,0.00,,,0.00,VWS V14.01,2013-04-27 05:50:00,
2013-04-27 01:54:00,54.0,54.0,29.88,WNW,300,0.0,0.0,100,0.00,,,0.00,VWS V14.01,2013-04-27 05:54:00,
2013-04-27 01:59:00,54.6,54.6,29.88,WNW,300,0.0,0.0,100,0.00,,,0.00,VWS V14.01,2013-04-27 05:59:00,
2013-04-27 02:00:00,54.6,54.6,29.88,WNW,300,0.0,0.0,100,0.00,,,0.00,VWS V14.01,2013-04-27 06:00:00,
2013-04-27 02:09:00,54.9,54.9,29.88,WNW,300,0.0,0.0,100,0.00,,,0.00,VWS V14.01,2013-04-27 06:09:00,
2013-04-27 02:14:00,55.1,55.1,29.88,WNW,300,0.0,0.0,100,0.00,,,0.00,VWS V14.01,2013-04-27 06:14:00,
2013-04-27 02:19:00,55.3,55.3,29.88,WNW,300,0.0,0.0,100,0.00,,,0.00,VWS V14.01,2013-04-27 06:19:00,
2013-04-27 02:20:00,55.3,55.3,29.88,WNW,300,0.0,0.0,100,0.00,,,0.00,VWS V14.01,2013-04-27 06:20:00,
2013-04-27 02:24:00,55.3,55.3,29.88,WNW,300,0.0,0.0,100,0.00,,,0.00,VWS V14.01,2013-04-27 06:24:00,
2013-04-27 02:29:00,55.3,55.3,29.88,WNW,303,0.0,0.0,100,0.00,,,0.00,VWS V14.01,2013-04-27 06:29:00,
2013-04-27 02:30:00,55.3,55.3,29.88,NE,39,0.0,0.0,100,0.00,,,0.00,VWS V14.01,2013-04-27 06:30:00,
2013-04-27 02:34:00,55.5,55.5,29.85,NNE,24,0.0,0.0,100,0.00,,,0.00,VWS V14.01,2013-04-27 06:34:00,
2013-04-27 02:39:00,55.3,55.3,29.85,NE,36,0.0,0.0,100,0.00,,,0.00,VWS V14.01,2013-04-27 06:39:00,
2013-04-27 02:40:00,55.3,55.3,29.85,NNE,27,0.0,0.0,100,0.00,,,0.00,VWS V14.01,2013-04-27 06:40:00,
2013-04-27 02:44:00,55.1,55.1,29.85,NNE,27,0.0,0.0,100,0.00,,,0.00,VWS V14.01,2013-04-27 06:44:00,
2013-04-27 02:49:00,55.1,55.1,29.85,NNE,27,0.0,0.0,100,0.00,,,0.00,VWS V14.01,2013-04-27 06:49:00,
2013-04-27 02:50:00,55.1,55.1,29.85,NNE,27,0.0,0.0,100,0.00,,,0.00,VWS V14.01,2013-04-27 06:50:00,
2013-04-27 02:54:00,55.3,55.3,29.85,NW,310,0.0,0.0,100,0.00,,,0.00,VWS V14.01,2013-04-27 06:54:00,
2013-04-27 02:59:00,55.8,55.8,29.85,NW,310,0.0,0.0,100,0.00,,,0.00,VWS V14.01,2013-04-27 06:59:00,
2013-04-27 03:04:00,55.8,55.8,29.85,NW,323,0.0,0.0,100,0.00,,,0.00,VWS V14.01,2013-04-27 07:04:00,
2013-04-27 03:09:00,56.7,56.7,29.85,NW,326,0.0,0.0,100,0.00,,,0.00,VWS V14.01,2013-04-27 07:09:00,
2013-04-27 03:10:00,56.7,56.7,29.85,NW,326,0.0,0.0,100,0.00,,,0.00,VWS V14.01,2013-04-27 07:10:00,
2013-04-27 03:14:00,56.7,56.7,29.85,NW,326,0.0,0.0,100,0.00,,,0.00,VWS V14.01,2013-04-27 07:14:00,
2013-04-27 03:19:00,56.9,56.9,29.85,NW,326,0.0,0.0,100,0.00,,,0.00,VWS V14.01,2013-04-27 07:19:00,
2013-04-27 03:20:00,56.9,56.9,29.85,NW,326,0.0,0.0,100,0.00,,,0.00,VWS V14.01,2013-04-27 07:20:00,
2013-04-27 03:24:00,56.9,56.9,29.85,NW,326,0.0,0.0,100,0.00,,,0.00,VWS V14.01,2013-04-27 07:24:00,
2013-04-27 03:29:00,56.9,56.9,29.85,NW,326,0.0,0.0,100,0.00,,,0.00,VWS V14.01,2013-04-27 07:29:00,
2013-04-27 03:30:00,56.9,56.9,29.85,NW,326,0.0,0.0,100,0.00,,,0.00,VWS V14.01,2013-04-27 07:30:00,
2013-04-27 03:34:00,56.9,56.9,29.85,NW,326,0.0,0.0,100,0.00,,,0.00,VWS V14.01,2013-04-27 07:34:00,
2013-04-27 03:39:00,56.9,56.9,29.85,NW,326,0.0,0.0,100,0.00,,,0.00,VWS V14.01,2013-04-27 07:39:00,
2013-04-27 03:40:00,56.9,56.9,29.85,NW,326,0.0,0.0,100,0.00,,,0.00,VWS V14.01,2013-04-27 07:40:00,
2013-04-27 03:44:00,56.9,56.9,29.85,NW,326,0.0,0.0,100,0.00,,,0.00,VWS V14.01,2013-04-27 07:44:00,
2013-04-27 03:49:00,56.9,56.9,29.85,NW,326,0.0,0.0,100,0.00,,,0.00,VWS V14.01,2013-04-27 07:49:00,
2013-04-27 03:50:00,56.9,56.9,29.85,NW,326,0.0,0.0,100,0.00,,,0.00,VWS V14.01,2013-04-27 07:50:00,
2013-04-27 03:54:00,56.9,56.9,29.85,NW,326,0.0,0.0,100,0.00,,,0.00,VWS V14.01,2013-04-27 07:54:00,
2013-04-27 03:59:00,56.9,56.9,29.85,NW,326,0.0,0.0,100,0.00,,,0.00,VWS V14.01,2013-04-27 07:59:00,
2013-04-27 04:04:00,56.9,56.9,29.85,SSW,195,0.0,0.0,100,0.00,,,0.00,VWS V14.01,2013-04-27 08:04:00,
2013-04-27 04:09:00,56.9,56.9,29.85,SSW,195,0.0,0.0,100,0.00,,,0.00,VWS V14.01,2013-04-27 08:09:00,
2013-04-27 04:10:00,56.9,56.9,29.85,SSW,195,0.0,0.0,100,0.00,,,0.00,VWS V14.01,2013-04-27 08:10:00,
2013-04-27 04:14:00,56.9,56.9,29.85,South,187,0.0,0.0,100,0.00,,,0.00,VWS V14.01,2013-04-27 08:14:00,
2013-04-27 04:19:00,56.9,56.9,29.85,SSE,166,0.0,0.0,100,0.00,,,0.00,VWS V14.01,2013-04-27 08:19:00,
2013-04-27 04:20:00,56.9,56.9,29.85,SSE,166,0.0,0.0,100,0.00,,,0.00,VWS V14.01,2013-04-27 08:20:00,
2013-04-27 04:24:00,56.9,56.9,29.85,SSE,166,0.0,0.0,100,0.00,,,0.00,VWS V14.01,2013-04-27 08:24:00,
2013-04-27 04:29:00,56.9,56.9,29.85,SSE,166,0.0,0.0,100,0.00,,,0.00,VWS V14.01,2013-04-27 08:29:00,
2013-04-27 04:30:00,56.9,56.9,29.85,SSE,166,0.0,0.0,100,0.00,,,0.00,VWS V14.01,2013-04-27 08:30:00,
2013-04-27 04:34:00,56.9,56.9,29.85,SSE,166,0.0,0.0,100,0.00,,,0.00,VWS V14.01,2013-04-27 08:34:00,
2013-04-27 04:39:00,56.9,56.9,29.85,SSE,166,0.0,0.0,100,0.00,,,0.00,VWS V14.01,2013-04-27 08:39:00,
2013-04-27 04:40:00,56.9,56.9,29.85,SSE,166,0.0,0.0,100,0.00,,,0.00,VWS V14.01,2013-04-27 08:40:00,
2013-04-27 04:44:00,56.9,56.9,29.85,SSW,207,0.0,0.0,100,0.00,,,0.00,VWS V14.01,2013-04-27 08:44:00,
2013-04-27 04:49:00,56.9,56.9,29.88,South,182,5.4,5.4,100,0.00,,,0.00,VWS V14.01,2013-04-27 08:49:00,
2013-04-27 04:50:00,56.9,56.9,29.88,South,182,5.4,5.4,100,0.00,,,0.00,VWS V14.01,2013-04-27 08:50:00,
2013-04-27 04:54:00,56.9,56.9,29.88,South,189,2.7,5.4,100,0.00,,,0.00,VWS V14.01,2013-04-27 08:54:00,
2013-04-27 04:59:00,56.9,56.9,29.88,SSW,202,2.2,5.4,100,0.00,,,0.00,VWS V14.01,2013-04-27 08:59:00,
2013-04-27 05:00:00,56.9,56.9,29.88,SSW,201,0.0,5.4,100,0.00,,,0.00,VWS V14.01,2013-04-27 09:00:00,
2013-04-27 05:09:00,56.0,56.0,29.88,WSW,251,0.0,0.0,100,0.00,,,0.00,VWS V14.01,2013-04-27 09:09:00,
2013-04-27 05:14:00,56.0,56.0,29.88,South,182,0.0,0.0,100,0.00,,,0.00,VWS V14.01,2013-04-27 09:14:00,
2013-04-27 05:19:00,55.8,55.8,29.85,South,182,0.0,0.0,100,0.00,,,0.00,VWS V14.01,2013-04-27 09:19:00,
2013-04-27 05:20:00,55.8,55.8,29.85,South,182,0.0,0.0,100,0.00,,,0.00,VWS V14.01,2013-04-27 09:20:00,
2013-04-27 05:24:00,55.8,55.8,29.85,South,176,0.0,2.7,100,0.00,,,0.00,VWS V14.01,2013-04-27 09:24:00,
2013-04-27 05:29:00,55.7,55.7,29.85,South,169,0.0,2.7,100,0.00,,,0.00,VWS V14.01,2013-04-27 09:29:00,
2013-04-27 05:34:00,55.7,55.7,29.85,SW,226,0.0,0.0,100,0.00,,,0.00,VWS V14.01,2013-04-27 09:34:00,
2013-04-27 05:39:00,55.7,55.7,29.85,West,263,0.0,0.0,100,0.00,,,0.00,VWS V14.01,2013-04-27 09:39:00,
2013-04-27 05:40:00,55.7,55.7,29.85,West,263,0.0,0.0,100,0.00,,,0.00,VWS V14.01,2013-04-27 09:40:00,
2013-04-27 05:44:00,55.3,55.3,29.85,WSW,237,0.0,0.0,100,0.00,,,0.00,VWS V14.01,2013-04-27 09:44:00,
2013-04-27 05:49:00,55.3,55.3,29.85,South,170,0.0,0.0,100,0.00,,,0.00,VWS V14.01,2013-04-27 09:49:00,
2013-04-27 05:54:00,55.3,55.3,29.85,South,180,0.0,0.0,100,0.00,,,0.00,VWS V14.01,2013-04-27 09:54:00,
2013-04-27 05:59:00,55.1,55.1,29.85,South,170,0.0,0.0,100,0.00,,,0.00,VWS V14.01,2013-04-27 09:59:00,
2013-04-27 06:00:00,55.1,55.1,29.85,South,170,0.0,0.0,100,0.00,,,0.00,VWS V14.01,2013-04-27 10:00:00,
2013-04-27 06:04:00,55.1,55.1,29.85,SSW,208,0.0,0.0,100,0.00,,,0.00,VWS V14.01,2013-04-27 10:04:00,
2013-04-27 06:09:00,55.1,55.1,29.85,North,357,0.0,0.0,100,0.00,,,0.00,VWS V14.01,2013-04-27 10:09:00,
2013-04-27 06:10:00,55.1,55.1,29.85,North,357,0.0,0.0,100,0.00,,,0.00,VWS V14.01,2013-04-27 10:10:00,
2013-04-27 06:14:00,55.1,55.1,29.85,NNW,331,2.2,2.2,100,0.00,,,0.00,VWS V14.01,2013-04-27 10:14:00,
2013-04-27 06:19:00,54.6,54.6,29.85,South,172,3.1,3.1,100,0.00,,,0.00,VWS V14.01,2013-04-27 10:19:00,
2013-04-27 06:20:00,54.6,54.6,29.85,South,172,3.1,3.1,100,0.00,,,0.00,VWS V14.01,2013-04-27 10:20:00,
2013-04-27 06:24:00,54.4,54.4,29.83,SSW,196,0.0,3.1,100,0.00,,,0.00,VWS V14.01,2013-04-27 10:24:00,
2013-04-27 06:29:00,54.4,54.4,29.83,WNW,285,0.0,3.1,100,0.00,,,0.00,VWS V14.01,2013-04-27 10:29:00,
2013-04-27 06:30:00,54.4,54.4,29.83,NNE,31,0.0,3.1,100,0.00,,,0.00,VWS V14.01,2013-04-27 10:30:00,
2013-04-27 06:39:00,54.4,54.4,29.85,NNE,33,2.2,4.0,100,0.00,,,0.00,VWS V14.01,2013-04-27 10:39:00,
2013-04-27 06:40:00,54.4,54.4,29.85,NNE,33,0.0,4.0,100,0.00,,,0.00,VWS V14.01,2013-04-27 10:40:00,
2013-04-27 06:44:00,54.4,54.4,29.85,NNE,33,0.0,0.0,100,0.00,,,0.00,VWS V14.01,2013-04-27 10:44:00,
2013-04-27 06:49:00,54.4,54.4,29.85,SSW,192,0.0,0.0,100,0.00,,,0.00,VWS V14.01,2013-04-27 10:49:00,
2013-04-27 06:50:00,54.4,54.4,29.85,SSW,192,0.0,0.0,100,0.00,,,0.00,VWS V14.01,2013-04-27 10:50:00,
2013-04-27 06:54:00,54.4,54.4,29.85,SSW,192,0.0,0.0,100,0.00,,,0.00,VWS V14.01,2013-04-27 10:54:00,
2013-04-27 06:59:00,54.2,54.2,29.85,SSW,192,0.0,0.0,100,0.00,,,0.00,VWS V14.01,2013-04-27 10:59:00,
2013-04-27 07:04:00,54.0,54.0,29.85,South,190,0.0,0.0,100,0.00,,,0.00,VWS V14.01,2013-04-27 11:04:00,
2013-04-27 07:10:00,54.0,54.0,29.85,South,190,0.0,0.0,100,0.00,,,0.00,VWS V14.01,2013-04-27 11:10:00,
2013-04-27 07:15:00,54.0,54.0,29.85,South,188,3.1,3.1,100,0.00,,,0.00,VWS V14.01,2013-04-27 11:15:00,
2013-04-27 07:20:00,54.0,54.0,29.85,SSE,166,0.0,3.1,100,0.00,,,0.00,VWS V14.01,2013-04-27 11:20:00,
2013-04-27 07:25:00,53.9,53.9,29.85,SSE,167,0.0,0.0,100,0.00,,,0.00,VWS V14.01,2013-04-27 11:25:00,
2013-04-27 07:30:00,53.9,53.9,29.85,SSW,212,4.0,4.0,100,0.00,,,0.00,VWS V14.01,2013-04-27 11:30:00,
2013-04-27 07:35:00,53.9,53.9,29.88,SSW,198,0.0,4.0,100,0.00,,,0.00,VWS V14.01,2013-04-27 11:35:00,
2013-04-27 07:40:00,53.9,53.9,29.88,South,191,0.0,4.0,100,0.00,,,0.00,VWS V14.01,2013-04-27 11:40:00,
2013-04-27 07:45:00,53.5,53.5,29.88,South,191,0.0,0.0,100,0.00,,,0.00,VWS V14.01,2013-04-27 11:45:00,
2013-04-27 07:50:00,53.5,53.5,29.88,WSW,239,0.0,0.0,100,0.00,,,0.00,VWS V14.01,2013-04-27 11:50:00,
2013-04-27 07:55:00,53.5,53.5,29.88,SSW,205,0.0,0.0,100,0.00,,,0.00,VWS V14.01,2013-04-27 11:55:00,
2013-04-27 08:00:00,53.5,53.5,29.88,SSW,193,0.0,0.0,100,0.00,,,0.00,VWS V14.01,2013-04-27 12:00:00,
2013-04-27 08:05:00,53.5,53.5,29.88,South,175,0.0,0.0,100,0.00,,,0.00,VWS V14.01,2013-04-27 12:05:00,
2013-04-27 08:10:00,53.5,53.5,29.88,NE,34,0.0,0.0,100,0.00,,,0.00,VWS V14.01,2013-04-27 12:10:00,
2013-04-27 08:15:00,53.5,53.5,29.88,NW,325,0.0,0.0,100,0.00,,,0.00,VWS V14.01,2013-04-27 12:15:00,
2013-04-27 08:20:00,53.0,53.0,29.85,ENE,60,3.1,3.1,100,0.00,,,0.00,VWS V14.01,2013-04-27 12:20:00,
2013-04-27 08:25:00,53.0,53.0,29.85,SSW,199,0.0,3.1,100,0.00,,,0.00,VWS V14.01,2013-04-27 12:25:00,
2013-04-27 08:30:00,53.0,53.0,29.85,NNE,14,0.0,3.1,100,0.00,,,0.00,VWS V14.01,2013-04-27 12:30:00,
2013-04-27 08:35:00,52.8,52.8,29.85,NNE,14,0.0,0.0,100,0.00,,,0.00,VWS V14.01,2013-04-27 12:35:00,
2013-04-27 08:40:00,52.8,52.8,29.85,NNE,14,0.0,0.0,100,0.00,,,0.00,VWS V14.01,2013-04-27 12:40:00,
2013-04-27 08:45:00,53.3,53.3,29.85,WNW,303,0.0,0.0,100,0.00,,,0.00,VWS V14.01,2013-04-27 12:45:00,
2013-04-27 08:50:00,53.3,53.3,29.85,WNW,303,0.0,0.0,100,0.00,,,0.00,VWS V14.01,2013-04-27 12:50:00,
2013-04-27 08:55:00,53.3,53.3,29.85,WNW,303,0.0,0.0,100,0.00,,,0.00,VWS V14.01,2013-04-27 12:55:00,
2013-04-27 09:00:00,54.0,54.0,29.85,WNW,293,0.0,0.0,100,0.00,,,0.00,VWS V14.01,2013-04-27 13:00:00,
2013-04-27 09:05:00,54.0,54.0,29.85,WSW,258,0.0,0.0,100,0.00,,,0.00,VWS V14.01,2013-04-27 13:05:00,
2013-04-27 09:10:00,54.6,54.6,29.85,NNE,32,2.7,2.7,100,0.00,,,0.00,VWS V14.01,2013-04-27 13:10:00,
2013-04-27 09:15:00,54.6,54.6,29.85,NNE,27,0.0,2.7,100,0.00,,,0.00,VWS V14.01,2013-04-27 13:15:00,
2013-04-27 09:20:00,54.9,54.9,29.85,SW,219,0.0,4.0,100,0.00,,,0.00,VWS V14.01,2013-04-27 13:20:00,
2013-04-27 09:25:00,54.9,54.9,29.85,SSE,157,0.0,2.2,100,0.00,,,0.00,VWS V14.01,2013-04-27 13:25:00,
2013-04-27 09:30:00,55.3,55.3,29.85,South,187,2.2,2.2,100,0.00,,,0.00,VWS V14.01,2013-04-27 13:30:00,
2013-04-27 09:35:00,55.8,55.8,29.85,South,183,0.0,2.2,100,0.00,,,0.00,VWS V14.01,2013-04-27 13:35:00,
2013-04-27 09:40:00,56.2,56.2,29.85,South,183,0.0,2.2,100,0.00,,,0.00,VWS V14.01,2013-04-27 13:40:00,
2013-04-27 09:50:00,56.9,56.9,29.88,SW,222,4.0,4.0,100,0.00,,,0.00,VWS V14.01,2013-04-27 13:50:00,
2013-04-27 09:55:00,57.6,57.6,29.88,SSE,159,0.0,4.0,100,0.00,,,0.00,VWS V14.01,2013-04-27 13:55:00,
2013-04-27 10:00:00,57.6,57.6,29.88,SSE,161,0.0,4.0,100,0.00,,,0.00,VWS V14.01,2013-04-27 14:00:00,
2013-04-27 10:05:00,58.4,58.4,29.85,SSE,161,0.0,0.0,100,0.00,,,0.00,VWS V14.01,2013-04-27 14:05:00,
2013-04-27 10:10:00,58.5,58.5,29.85,SSE,157,0.0,0.0,100,0.00,,,0.00,VWS V14.01,2013-04-27 14:10:00,
2013-04-27 10:15:00,58.5,58.5,29.85,SSE,157,0.0,0.0,100,0.00,,,0.00,VWS V14.01,2013-04-27 14:15:00,
2013-04-27 10:20:00,58.2,58.2,29.85,SSE,157,0.0,0.0,100,0.00,,,0.00,VWS V14.01,2013-04-27 14:20:00,
2013-04-27 10:25:00,58.2,58.2,29.85,NNE,14,4.0,4.0,100,0.00,,,0.00,VWS V14.01,2013-04-27 14:25:00,
2013-04-27 10:30:00,57.3,57.3,29.85,North,353,3.1,3.1,100,0.00,,,0.00,VWS V14.01,2013-04-27 14:30:00,
2013-04-27 10:35:00,57.3,57.3,29.85,NNE,22,0.0,3.1,100,0.00,,,0.00,VWS V14.01,2013-04-27 14:35:00,
2013-04-27 10:40:00,57.3,57.3,29.85,NE,45,0.0,3.1,100,0.00,,,0.00,VWS V14.01,2013-04-27 14:40:00,
2013-04-27 10:45:00,57.8,57.8,29.85,NNE,18,0.0,0.0,100,0.00,,,0.00,VWS V14.01,2013-04-27 14:45:00,
2013-04-27 10:50:00,58.2,58.2,29.85,NNE,24,0.0,0.0,100,0.00,,,0.00,VWS V14.01,2013-04-27 14:50:00,
2013-04-27 10:55:00,58.9,58.9,29.85,WSW,243,3.6,3.6,100,0.00,,,0.00,VWS V14.01,2013-04-27 14:55:00,
2013-04-27 11:00:00,58.9,58.9,29.85,North,357,2.2,3.6,100,0.00,,,0.00,VWS V14.01,2013-04-27 15:00:00,
2013-04-27 11:05:00,58.9,58.9,29.85,North,353,0.0,2.2,100,0.00,,,0.00,VWS V14.01,2013-04-27 15:05:00,
2013-04-27 11:10:00,60.0,60.0,29.85,NE,44,0.0,2.2,100,0.00,,,0.00,VWS V14.01,2013-04-27 15:10:00,
2013-04-27 11:15:00,60.0,60.0,29.85,NE,44,0.0,0.0,100,0.00,,,0.00,VWS V14.01,2013-04-27 15:15:00,
2013-04-27 11:20:00,61.2,59.6,29.85,South,187,4.5,4.5,94,0.00,,,0.00,VWS V14.01,2013-04-27 15:20:00,
2013-04-27 11:25:00,61.8,60.1,29.85,SW,229,2.7,4.5,94,0.00,,,0.00,VWS V14.01,2013-04-27 15:25:00,
2013-04-27 11:30:00,61.8,60.1,29.85,SW,229,2.7,4.5,94,0.00,,,0.00,VWS V14.01,2013-04-27 15:30:00,
2013-04-27 11:35:00,62.9,61.9,29.85,SE,143,0.0,3.6,97,0.00,,,0.00,VWS V14.01,2013-04-27 15:35:00,
2013-04-27 11:40:00,62.9,61.9,29.85,WNW,287,3.1,3.6,97,0.00,,,0.00,VWS V14.01,2013-04-27 15:40:00,
2013-04-27 11:45:00,63.2,59.4,29.85,NW,310,0.0,3.1,87,0.00,,,0.00,VWS V14.01,2013-04-27 15:45:00,
2013-04-27 11:50:00,63.2,60.9,29.85,NNW,346,0.0,3.1,92,0.00,,,0.00,VWS V14.01,2013-04-27 15:50:00,
2013-04-27 11:55:00,63.2,60.9,29.85,NNE,20,2.7,2.7,92,0.00,,,0.00,VWS V14.01,2013-04-27 15:55:00,
2013-04-27 12:00:00,63.2,60.9,29.85,WNW,289,0.0,2.7,92,0.00,,,0.00,VWS V14.01,2013-04-27 16:00:00,
2013-04-27 12:05:00,64.5,58.4,29.88,NW,322,4.9,4.9,80,0.00,,,0.00,VWS V14.01,2013-04-27 16:05:00,
2013-04-27 12:10:00,64.8,57.9,29.88,North,357,0.0,4.9,78,0.00,,,0.00,VWS V14.01,2013-04-27 16:10:00,
2013-04-27 12:15:00,64.8,58.7,29.88,SW,232,2.2,2.7,80,0.00,,,0.00,VWS V14.01,2013-04-27 16:15:00,
2013-04-27 12:20:00,66.3,58.5,29.88,South,172,3.1,3.1,76,0.00,,,0.00,VWS V14.01,2013-04-27 16:20:00,
2013-04-27 12:25:00,66.3,58.5,29.85,WSW,243,2.2,4.9,76,0.00,,,0.00,VWS V14.01,2013-04-27 16:25:00,
2013-04-27 12:30:00,67.5,58.8,29.85,North,357,2.7,2.7,74,0.00,,,0.00,VWS V14.01,2013-04-27 16:30:00,
2013-04-27 12:35:00,67.5,58.8,29.85,WSW,243,3.1,3.1,74,0.00,,,0.00,VWS V14.01,2013-04-27 16:35:00,
2013-04-27 12:40:00,68.1,59.3,29.85,WSW,244,0.0,0.0,74,0.00,,,0.00,VWS V14.01,2013-04-27 16:40:00,
2013-04-27 12:45:00,68.1,59.3,29.85,SE,137,3.1,3.1,74,0.00,,,0.00,VWS V14.01,2013-04-27 16:45:00,
2013-04-27 12:50:00,68.1,59.3,29.85,WSW,251,3.6,3.6,74,0.00,,,0.00,VWS V14.01,2013-04-27 16:50:00,
2013-04-27 12:55:00,69.2,56.7,29.85,NNE,18,3.6,3.6,64,0.00,,,0.00,VWS V14.01,2013-04-27 16:55:00,
2013-04-27 13:00:00,69.2,56.7,29.85,South,181,3.6,3.6,64,0.00,,,0.00,VWS V14.01,2013-04-27 17:00:00,
2013-04-27 13:05:00,69.5,56.0,29.85,NE,48,2.7,3.6,62,0.00,,,0.00,VWS V14.01,2013-04-27 17:05:00,
2013-04-27 13:10:00,69.5,56.0,29.85,SW,226,2.7,4.9,62,0.00,,,0.00,VWS V14.01,2013-04-27 17:10:00,
2013-04-27 13:15:00,70.6,54.9,29.85,South,177,2.2,2.7,58,0.00,,,0.00,VWS V14.01,2013-04-27 17:15:00,
2013-04-27 13:20:00,71.0,55.2,29.85,NNW,342,2.2,4.0,58,0.00,,,0.00,VWS V14.01,2013-04-27 17:20:00,
2013-04-27 13:25:00,71.0,55.2,29.85,North,353,3.1,3.1,58,0.00,,,0.00,VWS V14.01,2013-04-27 17:25:00,
2013-04-27 13:30:00,71.0,54.1,29.85,SSE,158,3.1,3.1,55,0.00,,,0.00,VWS V14.01,2013-04-27 17:30:00,
2013-04-27 13:31:00,71.0,54.1,29.85,NE,42,3.1,3.1,55,0.00,,,0.00,VWS V14.01,2013-04-27 17:31:00,
2013-04-27 13:36:00,71.0,54.1,29.85,ENE,61,3.6,4.0,55,0.00,,,0.00,VWS V14.01,2013-04-27 17:36:00,
2013-04-27 13:40:00,71.9,54.9,29.85,NNE,23,2.7,4.0,55,0.00,,,0.00,VWS V14.01,2013-04-27 17:40:00,
2013-04-27 13:46:00,73.1,54.9,29.85,SW,223,5.8,5.8,53,0.00,,,0.00,VWS V14.01,2013-04-27 17:46:00,
2013-04-27 13:51:00,73.1,54.9,29.85,ESE,121,2.2,2.2,53,0.00,,,0.00,VWS V14.01,2013-04-27 17:51:00,
2013-04-27 13:56:00,73.5,54.0,29.83,SE,142,2.7,2.7,51,0.00,,,0.00,VWS V14.01,2013-04-27 17:56:00,
2013-04-27 14:00:00,72.8,53.4,29.83,WNW,286,2.2,5.8,51,0.00,,,0.00,VWS V14.01,2013-04-27 18:00:00,
2013-04-27 14:01:00,72.4,53.1,29.83,WNW,286,2.2,2.2,51,0.00,,,0.00,VWS V14.01,2013-04-27 18:01:00,
2013-04-27 14:06:00,72.2,54.1,29.85,NE,34,4.0,4.0,53,0.00,,,0.00,VWS V14.01,2013-04-27 18:06:00,
2013-04-27 14:10:00,72.2,54.1,29.85,East,88,5.4,5.4,53,0.00,,,0.00,VWS V14.01,2013-04-27 18:10:00,
2013-04-27 14:11:00,72.2,54.1,29.85,East,88,5.4,5.4,53,0.00,,,0.00,VWS V14.01,2013-04-27 18:11:00,
2013-04-27 14:16:00,72.2,54.1,29.85,NE,42,4.9,8.7,53,0.00,,,0.00,VWS V14.01,2013-04-27 18:16:00,
2013-04-27 14:20:00,72.2,54.1,29.85,ENE,58,3.1,8.7,53,0.00,,,0.00,VWS V14.01,2013-04-27 18:20:00,
2013-04-27 14:21:00,72.2,54.1,29.85,ENE,58,3.1,3.1,53,0.00,,,0.00,VWS V14.01,2013-04-27 18:21:00,
2013-04-27 14:26:00,72.2,54.1,29.85,NNW,345,3.1,3.1,53,0.00,,,0.00,VWS V14.01,2013-04-27 18:26:00,
2013-04-27 14:30:00,72.2,54.1,29.85,North,350,5.8,5.8,53,0.00,,,0.00,VWS V14.01,2013-04-27 18:30:00,
2013-04-27 14:31:00,72.2,54.1,29.85,North,350,5.8,5.8,53,0.00,,,0.00,VWS V14.01,2013-04-27 18:31:00,
2013-04-27 14:36:00,72.2,54.1,29.85,NE,38,2.2,5.8,53,0.00,,,0.00,VWS V14.01,2013-04-27 18:36:00,
2013-04-27 14:40:00,71.3,53.3,29.85,North,4,3.1,5.8,53,0.00,,,0.00,VWS V14.01,2013-04-27 18:40:00,
2013-04-27 14:41:00,71.3,53.3,29.85,West,271,0.0,3.1,53,0.00,,,0.00,VWS V14.01,2013-04-27 18:41:00,
2013-04-27 14:46:00,71.3,53.3,29.85,SW,236,2.2,3.1,53,0.00,,,0.00,VWS V14.01,2013-04-27 18:46:00,
2013-04-27 14:50:00,71.3,53.3,29.85,SSW,210,2.7,3.1,53,0.00,,,0.00,VWS V14.01,2013-04-27 18:50:00,
2013-04-27 14:51:00,71.3,53.3,29.85,NE,55,0.0,2.7,53,0.00,,,0.00,VWS V14.01,2013-04-27 18:51:00,
2013-04-27 14:56:00,71.5,53.4,29.85,East,87,0.0,2.7,53,0.00,,,0.00,VWS V14.01,2013-04-27 18:56:00,
2013-04-27 15:00:00,71.7,54.8,29.85,East,87,0.0,2.7,55,0.00,,,0.00,VWS V14.01,2013-04-27 19:00:00,
2013-04-27 15:01:00,71.7,54.8,29.85,SE,144,0.0,0.0,55,0.00,,,0.00,VWS V14.01,2013-04-27 19:01:00,
2013-04-27 15:06:00,71.9,53.8,29.85,SSW,208,3.1,3.1,53,0.00,,,0.00,VWS V14.01,2013-04-27 19:06:00,
2013-04-27 15:10:00,71.9,53.8,29.85,SSW,208,3.1,3.1,53,0.00,,,0.00,VWS V14.01,2013-04-27 19:10:00,
2013-04-27 15:11:00,71.9,53.8,29.85,SSW,208,3.1,3.1,53,0.00,,,0.00,VWS V14.01,2013-04-27 19:11:00,
2013-04-27 15:16:00,71.7,53.6,29.85,SSW,208,3.1,3.1,53,0.00,,,0.00,VWS V14.01,2013-04-27 19:16:00,
2013-04-27 15:20:00,71.3,53.3,29.85,North,353,0.0,3.6,53,0.00,,,0.00,VWS V14.01,2013-04-27 19:20:00,
2013-04-27 15:21:00,71.3,53.3,29.85,North,353,0.0,0.0,53,0.00,,,0.00,VWS V14.01,2013-04-27 19:21:00,
2013-04-27 15:26:00,71.3,53.3,29.83,SSE,155,0.0,0.0,53,0.00,,,0.00,VWS V14.01,2013-04-27 19:26:00,
2013-04-27 15:30:00,71.1,54.3,29.83,SW,221,0.0,0.0,55,0.00,,,0.00,VWS V14.01,2013-04-27 19:30:00,
2013-04-27 15:31:00,71.1,54.3,29.83,West,266,2.2,2.2,55,0.00,,,0.00,VWS V14.01,2013-04-27 19:31:00,
2013-04-27 15:36:00,71.1,56.5,29.83,West,266,2.2,2.2,60,0.00,,,0.00,VWS V14.01,2013-04-27 19:36:00,
2013-04-27 15:40:00,70.8,57.2,29.83,West,266,2.2,2.2,62,0.00,,,0.00,VWS V14.01,2013-04-27 19:40:00,
2013-04-27 15:41:00,70.6,57.0,29.83,West,266,2.2,2.2,62,0.00,,,0.00,VWS V14.01,2013-04-27 19:41:00,
2013-04-27 15:46:00,70.4,61.6,29.83,SW,224,2.7,3.6,74,0.00,,,0.00,VWS V14.01,2013-04-27 19:46:00,
2013-04-27 15:50:00,70.4,61.6,29.80,SW,224,2.7,3.6,74,0.00,,,0.00,VWS V14.01,2013-04-27 19:50:00,
2013-04-27 15:51:00,70.4,61.6,29.80,South,170,4.9,4.9,74,0.00,,,0.00,VWS V14.01,2013-04-27 19:51:00,
2013-04-27 15:56:00,70.8,60.1,29.80,South,173,2.7,4.9,69,0.00,,,0.00,VWS V14.01,2013-04-27 19:56:00,
2013-04-27 16:00:00,70.8,59.2,29.80,SSE,156,4.0,4.9,67,0.00,,,0.00,VWS V14.01,2013-04-27 20:00:00,
2013-04-27 16:01:00,70.8,59.2,29.80,SSE,156,4.0,4.0,67,0.00,,,0.00,VWS V14.01,2013-04-27 20:01:00,
2013-04-27 16:06:00,71.1,60.5,29.83,SSE,156,4.0,4.0,69,0.00,,,0.00,VWS V14.01,2013-04-27 20:06:00,
2013-04-27 16:10:00,71.1,60.5,29.83,WSW,243,3.6,4.0,69,0.00,,,0.00,VWS V14.01,2013-04-27 20:10:00,
2013-04-27 16:16:00,71.0,60.3,29.83,South,182,4.9,4.9,69,0.00,,,0.00,VWS V14.01,2013-04-27 20:16:00,
2013-04-27 16:20:00,70.1,58.5,29.83,WSW,239,2.2,4.9,67,0.00,,,0.00,VWS V14.01,2013-04-27 20:20:00,
2013-04-27 16:26:00,69.9,59.3,29.83,SW,235,3.1,4.0,69,0.00,,,0.00,VWS V14.01,2013-04-27 20:26:00,
2013-04-27 16:30:00,69.3,60.5,29.83,SW,235,3.1,4.0,74,0.00,,,0.00,VWS V14.01,2013-04-27 20:30:00,
2013-04-27 16:31:00,69.3,60.5,29.83,SW,235,3.1,3.1,74,0.00,,,0.00,VWS V14.01,2013-04-27 20:31:00,
2013-04-27 16:36:00,69.3,61.4,29.83,SE,146,2.2,3.1,76,0.00,,,0.00,VWS V14.01,2013-04-27 20:36:00,
2013-04-27 16:40:00,69.7,60.9,29.83,SSW,197,2.2,3.1,74,0.00,,,0.00,VWS V14.01,2013-04-27 20:40:00,
2013-04-27 16:41:00,69.7,60.9,29.83,SSW,197,2.2,2.2,74,0.00,,,0.00,VWS V14.01,2013-04-27 20:41:00,
2013-04-27 16:46:00,69.3,61.4,29.83,WNW,297,3.6,3.6,76,0.00,,,0.00,VWS V14.01,2013-04-27 20:46:00,
2013-04-27 16:50:00,69.3,61.4,29.83,WNW,297,3.6,3.6,76,0.00,,,0.00,VWS V14.01,2013-04-27 20:50:00,
2013-04-27 16:51:00,69.3,61.4,29.80,South,190,2.7,3.6,76,0.00,,,0.00,VWS V14.01,2013-04-27 20:51:00,
2013-04-27 16:56:00,69.3,61.4,29.80,South,190,2.7,3.6,76,0.00,,,0.00,VWS V14.01,2013-04-27 20:56:00,
2013-04-27 17:00:00,69.2,61.2,29.80,WSW,241,5.8,5.8,76,0.00,,,0.00,VWS V14.01,2013-04-27 21:00:00,
2013-04-27 17:01:00,69.2,61.2,29.80,WSW,241,5.8,5.8,76,0.00,,,0.00,VWS V14.01,2013-04-27 21:01:00,
2013-04-27 17:06:00,68.6,60.7,29.80,NNE,33,2.7,6.7,76,0.00,,,0.00,VWS V14.01,2013-04-27 21:06:00,
2013-04-27 17:11:00,67.9,60.0,29.83,SW,225,3.1,3.1,76,0.00,,,0.00,VWS V14.01,2013-04-27 21:11:00,
2013-04-27 17:16:00,67.5,59.7,29.83,West,277,2.7,4.0,76,0.00,,,0.00,VWS V14.01,2013-04-27 21:16:00,
2013-04-27 17:20:00,67.5,59.7,29.80,SSW,203,2.7,4.0,76,0.00,,,0.00,VWS V14.01,2013-04-27 21:20:00,
2013-04-27 17:21:00,67.5,59.7,29.80,SSW,203,2.7,2.7,76,0.00,,,0.00,VWS V14.01,2013-04-27 21:21:00,
2013-04-27 17:26:00,67.5,61.3,29.80,NE,37,2.2,2.7,80,0.00,,,0.00,VWS V14.01,2013-04-27 21:26:00,
2013-04-27 17:31:00,67.5,61.3,29.80,SSE,168,4.0,4.0,80,0.00,,,0.00,VWS V14.01,2013-04-27 21:31:00,
2013-04-27 17:36:00,67.9,60.9,29.80,NW,309,2.2,4.0,78,0.00,,,0.00,VWS V14.01,2013-04-27 21:36:00,
2013-04-27 17:40:00,67.9,60.9,29.80,NW,309,2.2,4.0,78,0.00,,,0.00,VWS V14.01,2013-04-27 21:40:00,
2013-04-27 17:41:00,67.9,60.9,29.80,NW,309,2.2,2.2,78,0.00,,,0.00,VWS V14.01,2013-04-27 21:41:00,
2013-04-27 17:46:00,67.9,60.9,29.80,SSW,206,0.0,2.2,78,0.00,,,0.00,VWS V14.01,2013-04-27 21:46:00,
2013-04-27 17:51:00,67.9,60.9,29.80,SW,222,4.9,4.9,78,0.00,,,0.00,VWS V14.01,2013-04-27 21:51:00,
2013-04-27 17:56:00,67.7,61.5,29.80,NW,309,3.1,4.9,80,0.00,,,0.00,VWS V14.01,2013-04-27 21:56:00,
2013-04-27 18:00:00,67.7,61.5,29.80,SSW,196,0.0,4.9,80,0.00,,,0.00,VWS V14.01,2013-04-27 22:00:00,
2013-04-27 18:06:00,67.7,62.3,29.80,WSW,241,3.1,3.6,83,0.00,,,0.00,VWS V14.01,2013-04-27 22:06:00,
2013-04-27 18:10:00,67.7,62.3,29.80,North,11,3.6,3.6,83,0.00,,,0.00,VWS V14.01,2013-04-27 22:10:00,
2013-04-27 18:11:00,67.7,62.3,29.80,SE,141,0.0,3.6,83,0.00,,,0.00,VWS V14.01,2013-04-27 22:11:00,
2013-04-27 18:16:00,67.7,62.3,29.80,SE,141,0.0,3.6,83,0.00,,,0.00,VWS V14.01,2013-04-27 22:16:00,
2013-04-27 18:21:00,67.7,62.3,29.80,WSW,246,3.1,3.1,83,0.00,,,0.00,VWS V14.01,2013-04-27 22:21:00,
2013-04-27 18:26:00,67.7,62.3,29.80,SSW,194,3.1,4.9,83,0.00,,,0.00,VWS V14.01,2013-04-27 22:26:00,
2013-04-27 18:30:00,67.5,62.9,29.80,South,172,5.8,5.8,85,0.00,,,0.00,VWS V14.01,2013-04-27 22:30:00,
2013-04-27 18:31:00,67.5,62.9,29.80,South,172,5.8,5.8,85,0.00,,,0.00,VWS V14.01,2013-04-27 22:31:00,
2013-04-27 18:36:00,67.5,62.9,29.80,WSW,237,2.7,5.8,85,0.00,,,0.00,VWS V14.01,2013-04-27 22:36:00,
2013-04-27 18:40:00,67.5,62.9,29.80,NNE,20,2.2,5.8,85,0.00,,,0.00,VWS V14.01,2013-04-27 22:40:00,
2013-04-27 18:46:00,67.5,62.9,29.80,SW,223,4.0,4.0,85,0.00,,,0.00,VWS V14.01,2013-04-27 22:46:00,
2013-04-27 18:50:00,65.9,64.9,29.80,West,276,0.0,4.0,97,0.00,,,0.00,VWS V14.01,2013-04-27 22:50:00,
2013-04-27 18:56:00,65.9,64.9,29.80,NNE,22,0.0,0.0,97,0.00,,,0.00,VWS V14.01,2013-04-27 22:56:00,
2013-04-27 19:00:00,65.9,64.9,29.80,WSW,243,0.0,4.0,97,0.00,,,0.00,VWS V14.01,2013-04-27 23:00:00,
2013-04-27 19:01:00,65.9,64.9,29.80,WSW,243,0.0,0.0,97,0.00,,,0.00,VWS V14.01,2013-04-27 23:01:00,
2013-04-27 19:06:00,65.9,64.9,29.80,SSW,198,2.7,2.7,97,0.00,,,0.00,VWS V14.01,2013-04-27 23:06:00,
2013-04-27 19:10:00,65.9,64.9,29.80,SSW,198,2.7,2.7,97,0.00,,,0.00,VWS V14.01,2013-04-27 23:10:00,
2013-04-27 19:11:00,65.9,64.9,29.80,SSW,198,2.7,2.7,97,0.00,,,0.00,VWS V14.01,2013-04-27 23:11:00,
2013-04-27 19:16:00,65.9,64.9,29.80,SSW,198,2.7,2.7,97,0.00,,,0.00,VWS V14.01,2013-04-27 23:16:00,
2013-04-27 19:20:00,65.9,64.9,29.80,WSW,246,3.6,3.6,97,0.00,,,0.00,VWS V14.01,2013-04-27 23:20:00,
2013-04-27 19:26:00,63.6,63.6,29.80,ESE,106,2.2,3.6,100,0.00,,,0.00,VWS V14.01,2013-04-27 23:26:00,
2013-04-27 19:30:00,63.4,63.4,29.80,ESE,106,2.2,3.6,100,0.00,,,0.00,VWS V14.01,2013-04-27 23:30:00,
2013-04-27 19:31:00,63.4,63.4,29.80,SSW,195,2.2,3.1,100,0.00,,,0.00,VWS V14.01,2013-04-27 23:31:00,
2013-04-27 19:36:00,63.4,63.4,29.80,SSW,195,2.2,3.1,100,0.00,,,0.00,VWS V14.01,2013-04-27 23:36:00,
2013-04-27 19:40:00,62.9,62.9,29.80,SSW,195,2.2,3.1,100,0.00,,,0.00,VWS V14.01,2013-04-27 23:40:00,
2013-04-27 19:41:00,62.9,62.9,29.80,SSW,195,2.2,2.2,100,0.00,,,0.00,VWS V14.01,2013-04-27 23:41:00,
2013-04-27 19:46:00,62.9,62.9,29.80,SSW,193,0.0,2.2,100,0.00,,,0.00,VWS V14.01,2013-04-27 23:46:00,
2013-04-27 19:50:00,62.1,62.1,29.80,SSW,193,0.0,2.2,100,0.00,,,0.00,VWS V14.01,2013-04-27 23:50:00,
2013-04-27 19:51:00,62.1,62.1,29.80,SSW,193,0.0,0.0,100,0.00,,,0.00,VWS V14.01,2013-04-27 23:51:00,
2013-04-27 19:56:00,61.8,61.8,29.80,SSW,193,0.0,0.0,100,0.00,,,0.00,VWS V14.01,2013-04-27 23:56:00,
2013-04-27 20:01:00,61.2,61.2,29.80,SSW,202,2.2,2.2,100,0.00,,,0.00,VWS V14.01,2013-04-28 00:01:00,
2013-04-27 20:06:00,61.2,61.2,29.80,SSW,202,2.2,2.2,100,0.00,,,0.00,VWS V14.01,2013-04-28 00:06:00,
2013-04-27 20:10:00,61.2,61.2,29.80,South,189,4.9,4.9,100,0.00,,,0.00,VWS V14.01,2013-04-28 00:10:00,
2013-04-27 20:11:00,61.2,61.2,29.80,South,187,3.1,4.9,100,0.00,,,0.00,VWS V14.01,2013-04-28 00:11:00,
2013-04-27 20:16:00,61.2,61.2,29.80,WSW,251,2.7,4.9,100,0.00,,,0.00,VWS V14.01,2013-04-28 00:16:00,
2013-04-27 20:20:00,61.2,61.2,29.80,WSW,237,0.0,4.9,100,0.00,,,0.00,VWS V14.01,2013-04-28 00:20:00,
2013-04-27 20:26:00,61.2,61.2,29.80,SSW,196,2.2,2.2,100,0.00,,,0.00,VWS V14.01,2013-04-28 00:26:00,
2013-04-27 20:30:00,61.2,61.2,29.80,West,264,2.7,2.7,100,0.00,,,0.00,VWS V14.01,2013-04-28 00:30:00,
2013-04-27 20:31:00,59.3,59.3,29.80,West,264,2.7,2.7,100,0.00,,,0.00,VWS V14.01,2013-04-28 00:31:00,
2013-04-27 20:36:00,59.3,59.3,29.80,ESE,105,2.7,2.7,100,0.00,,,0.00,VWS V14.01,2013-04-28 00:36:00,
2013-04-27 20:40:00,59.1,59.1,29.77,NW,315,3.1,3.1,100,0.00,,,0.00,VWS V14.01,2013-04-28 00:40:00,
2013-04-27 20:41:00,59.1,59.1,29.77,West,263,2.2,3.1,100,0.00,,,0.00,VWS V14.01,2013-04-28 00:41:00,
2013-04-27 20:46:00,59.1,59.1,29.77,NNE,29,0.0,3.1,100,0.00,,,0.00,VWS V14.01,2013-04-28 00:46:00,
2013-04-27 20:50:00,59.1,59.1,29.77,SW,218,0.0,3.1,100,0.00,,,0.00,VWS V14.01,2013-04-28 00:50:00,
2013-04-27 20:51:00,59.1,59.1,29.77,SW,218,0.0,0.0,100,0.00,,,0.00,VWS V14.01,2013-04-28 00:51:00,
2013-04-27 20:56:00,58.5,58.5,29.77,SW,227,3.6,3.6,100,0.00,,,0.00,VWS V14.01,2013-04-28 00:56:00,
2013-04-27 21:00:00,58.5,58.5,29.77,SW,220,0.0,3.6,100,0.00,,,0.00,VWS V14.01,2013-04-28 01:00:00,
2013-04-27 21:02:00,58.5,58.5,29.80,SW,220,0.0,0.0,100,0.00,,,0.00,VWS V14.01,2013-04-28 01:02:00,
2013-04-27 21:07:00,58.4,58.4,29.80,WSW,254,2.7,2.7,100,0.00,,,0.00,VWS V14.01,2013-04-28 01:07:00,
2013-04-27 21:10:00,58.4,58.4,29.80,SW,226,0.0,2.7,100,0.00,,,0.00,VWS V14.01,2013-04-28 01:10:00,
2013-04-27 21:12:00,58.4,58.4,29.80,SW,226,0.0,0.0,100,0.00,,,0.00,VWS V14.01,2013-04-28 01:12:00,
2013-04-27 21:17:00,58.2,58.2,29.80,ESE,121,0.0,0.0,100,0.00,,,0.00,VWS V14.01,2013-04-28 01:17:00,
2013-04-27 21:20:00,58.2,58.2,29.80,SSW,194,0.0,0.0,100,0.00,,,0.00,VWS V14.01,2013-04-28 01:20:00,
2013-04-27 21:22:00,58.2,58.2,29.80,SSW,194,0.0,0.0,100,0.00,,,0.00,VWS V14.01,2013-04-28 01:22:00,
2013-04-27 21:27:00,57.6,57.6,29.80,NE,36,0.0,0.0,100,0.00,,,0.00,VWS V14.01,2013-04-28 01:27:00,
2013-04-27 21:30:00,57.6,57.6,29.80,South,181,0.0,0.0,100,0.00,,,0.00,VWS V14.01,2013-04-28 01:30:00,
2013-04-27 21:32:00,57.5,57.5,29.80,South,181,0.0,0.0,100,0.00,,,0.00,VWS V14.01,2013-04-28 01:32:00,
2013-04-27 21:37:00,57.5,57.5,29.77,WSW,243,0.0,3.1,100,0.00,,,0.00,VWS V14.01,2013-04-28 01:37:00,
2013-04-27 21:40:00,57.3,57.3,29.77,WSW,247,0.0,3.1,100,0.00,,,0.00,VWS V14.01,2013-04-28 01:40:00,
2013-04-27 21:47:00,57.1,57.1,29.77,SSW,209,0.0,0.0,100,0.00,,,0.00,VWS V14.01,2013-04-28 01:47:00,
2013-04-27 21:50:00,57.1,57.1,29.77,SSW,209,0.0,0.0,100,0.00,,,0.00,VWS V14.01,2013-04-28 01:50:00,
2013-04-27 21:52:00,57.1,57.1,29.77,SSW,208,0.0,0.0,100,0.00,,,0.00,VWS V14.01,2013-04-28 01:52:00,
2013-04-27 21:57:00,56.7,56.7,29.77,WSW,249,2.2,2.2,100,0.00,,,0.00,VWS V14.01,2013-04-28 01:57:00,
2013-04-27 22:00:00,56.7,56.7,29.77,West,269,0.0,2.2,100,0.00,,,0.00,VWS V14.01,2013-04-28 02:00:00,
2013-04-27 22:02:00,56.7,56.7,29.77,West,269,0.0,0.0,100,0.00,,,0.00,VWS V14.01,2013-04-28 02:02:00,
2013-04-27 22:07:00,56.7,56.7,29.77,North,357,0.0,0.0,100,0.00,,,0.00,VWS V14.01,2013-04-28 02:07:00,
2013-04-27 22:10:00,56.7,56.7,29.77,NE,41,0.0,0.0,100,0.00,,,0.00,VWS V14.01,2013-04-28 02:10:00,
2013-04-27 22:12:00,56.7,56.7,29.77,NE,41,0.0,0.0,100,0.00,,,0.00,VWS V14.01,2013-04-28 02:12:00,
2013-04-27 22:17:00,56.4,56.4,29.77,WSW,250,0.0,0.0,100,0.00,,,0.00,VWS V14.01,2013-04-28 02:17:00,
2013-04-27 22:20:00,56.4,56.4,29.77,WSW,249,0.0,0.0,100,0.00,,,0.00,VWS V14.01,2013-04-28 02:20:00,
2013-04-27 22:22:00,56.2,56.2,29.77,WSW,252,0.0,0.0,100,0.00,,,0.00,VWS V14.01,2013-04-28 02:22:00,
2013-04-27 22:27:00,56.2,56.2,29.77,WSW,253,0.0,0.0,100,0.00,,,0.00,VWS V14.01,2013-04-28 02:27:00,
2013-04-27 22:32:00,56.2,56.2,29.77,WSW,253,0.0,0.0,100,0.00,,,0.00,VWS V14.01,2013-04-28 02:32:00,
2013-04-27 22:37:00,55.8,55.8,29.77,SSW,208,0.0,0.0,100,0.00,,,0.00,VWS V14.01,2013-04-28 02:37:00,
2013-04-27 22:40:00,55.8,55.8,29.77,SSW,208,0.0,0.0,100,0.00,,,0.00,VWS V14.01,2013-04-28 02:40:00,
2013-04-27 22:42:00,55.8,55.8,29.77,SSW,211,0.0,0.0,100,0.00,,,0.00,VWS V14.01,2013-04-28 02:42:00,
2013-04-27 22:47:00,55.8,55.8,29.77,SSW,212,0.0,0.0,100,0.00,,,0.00,VWS V14.01,2013-04-28 02:47:00,
2013-04-27 22:50:00,55.8,55.8,29.77,West,265,0.0,0.0,100,0.00,,,0.00,VWS V14.01,2013-04-28 02:50:00,
2013-04-27 22:57:00,55.8,55.8,29.77,West,260,0.0,0.0,100,0.00,,,0.00,VWS V14.01,2013-04-28 02:57:00,
2013-04-27 23:00:00,55.8,55.8,29.77,West,260,0.0,0.0,100,0.00,,,0.00,VWS V14.01,2013-04-28 03:00:00,
2013-04-27 23:02:00,55.8,55.8,29.77,West,259,0.0,0.0,100,0.00,,,0.00,VWS V14.01,2013-04-28 03:02:00,
2013-04-27 23:07:00,55.7,55.7,29.74,NW,307,0.0,0.0,100,0.00,,,0.00,VWS V14.01,2013-04-28 03:07:00,
2013-04-27 23:10:00,55.7,55.7,29.74,NW,321,0.0,0.0,100,0.00,,,0.00,VWS V14.01,2013-04-28 03:10:00,
2013-04-27 23:12:00,55.7,55.7,29.74,NW,321,0.0,0.0,100,0.00,,,0.00,VWS V14.01,2013-04-28 03:12:00,
2013-04-27 23:17:00,55.7,55.7,29.74,NW,321,0.0,0.0,100,0.00,,,0.00,VWS V14.01,2013-04-28 03:17:00,
2013-04-27 23:20:00,55.7,55.7,29.77,NW,321,0.0,0.0,100,0.00,,,0.00,VWS V14.01,2013-04-28 03:20:00,
2013-04-27 23:22:00,55.7,55.7,29.77,NW,321,0.0,0.0,100,0.00,,,0.00,VWS V14.01,2013-04-28 03:22:00,
2013-04-27 23:27:00,55.5,55.5,29.77,NNE,23,0.0,0.0,100,0.00,,,0.00,VWS V14.01,2013-04-28 03:27:00,
2013-04-27 23:30:00,55.5,55.5,29.77,NNE,23,0.0,0.0,100,0.00,,,0.00,VWS V14.01,2013-04-28 03:30:00,
2013-04-27 23:37:00,55.3,55.3,29.77,NNE,25,0.0,0.0,100,0.00,,,0.00,VWS V14.01,2013-04-28 03:37:00,
2013-04-27 23:40:00,55.3,55.3,29.77,NNE,25,0.0,0.0,100,0.00,,,0.00,VWS V14.01,2013-04-28 03:40:00,
2013-04-27 23:42:00,55.3,55.3,29.77,NNE,22,0.0,0.0,100,0.00,,,0.00,VWS V14.01,2013-04-28 03:42:00,
2013-04-27 23:47:00,55.3,55.3,29.77,NNE,22,0.0,0.0,100,0.00,,,0.00,VWS V14.01,2013-04-28 03:47:00,
2013-04-27 23:52:00,55.3,55.3,29.74,NNE,22,0.0,0.0,100,0.00,,,0.00,VWS V14.01,2013-04-28 03:52:00,
2013-04-27 23:57:00,55.3,55.3,29.74,NNE,22,0.0,0.0,100,0.00,,,0.00,VWS V14.01,2013-04-28 03:57:00,